Nearby METAR Reports

 

KEDC - Austin Exec, Texas, USA
Distance from station: SSE 10mi, 17km
Updated: Mon, 30-Nov-2020 7:35am CST
Clear
Clear
 Wind from NNW
Wind: NNW 9 mph , 15 km/h
Temperature: 36°F , 2°C
Wind Chill: 29°F , -2°C
Dew Point: 23°F , -5°C
Humidity: 60%
Barometer: 30.49 inHg , 1032.5 hPa
Clouds: Clear
Visibility: 10 miles , 16 km
2020/11/30 13:35 KEDC 301335Z AUTO 34008KT 10SM CLR 02/M05 A3049 RMK AO2
KGTU - Georgetown, Texas, USA
Distance from station: NNW 11mi, 17km
Updated: Mon, 30-Nov-2020 6:56am CST
Clear
Clear
 Wind from NNW
Wind: NNW 13 mph , 20 km/h
Temperature: 36°F , 2°C
Wind Chill: 27°F , -3°C
Dew Point: 21°F , -6°C
Humidity: 56%
Barometer: 30.47 inHg , 1031.8 hPa
Clouds: Clear
Visibility: 10 miles , 16 km
2020/11/30 12:56 KGTU 301256Z 33011KT 10SM CLR 02/M06 A3047 RMK AO2 SLP324 T00171056
 
KATT - Austin/Mabry, Texas, USA
Distance from station: SSW 18mi, 30km
Updated: Mon, 30-Nov-2020 6:51am CST
Clear
Clear
 Wind from varies
Wind: varies 6 mph , 9 km/h
Temperature: 37°F , 3°C
Wind Chill: 32°F , 0°C
Dew Point: 21°F , -6°C
Humidity: 52%
Barometer: 30.47 inHg , 1031.8 hPa
Clouds: Clear
Visibility: 10 miles , 16 km
2020/11/30 12:51 KATT 301251Z AUTO VRB05KT 10SM CLR 03/M06 A3047 RMK AO2 SLP323 T00331061
KRYW - Lago Vista, Texas, USA
Distance from station: W 22mi, 35km
Updated: Mon, 30-Nov-2020 7:35am CST
Clear
Clear
 Wind from NW
Wind: NW 7 mph , 11 km/h
Temperature: 32°F , 0°C
Wind Chill: 25°F , -4°C
Dew Point: 23°F , -5°C
Humidity: 69%
Barometer: 30.47 inHg , 1031.8 hPa
Clouds: Clear
Visibility: 10 miles , 16 km
2020/11/30 13:35 KRYW 301335Z AUTO 31006KT 10SM CLR 00/M05 A3047 RMK AO2 T00041052
 
KAUS - Austin, Texas, USA
Distance from station: S 25mi, 41km
Updated: Mon, 30-Nov-2020 6:53am CST
Clear
Clear
 Wind from NW
Wind: NW 13 mph , 20 km/h
Temperature: 39°F , 4°C
Wind Chill: 31°F , -1°C
Dew Point: 23°F , -5°C
Humidity: 52%
Barometer: 30.46 inHg , 1031.5 hPa
Clouds: Clear
Visibility: 10 miles , 16 km
2020/11/30 12:53 KAUS 301253Z 32011KT 10SM CLR 04/M05 A3046 RMK AO2 PK WND 36029/1205 SLP320 T00391050 $
KILE - Killeen Muni, Texas, USA
Distance from station: N 36mi, 58km
Updated: Mon, 30-Nov-2020 6:56am CST

 
2020/11/30 12:56 KILE 301256Z AUTO RMK AO2 SLPNO PWINO FZRANO $
 
KGRK - Gray/Ft Hood, Texas, USA
Distance from station: NNW 38mi, 62km
Updated: Mon, 30-Nov-2020 6:58am CST
Clear
Clear
 Wind from N
Wind: N 17 mph , 28 km/h
Temperature: 34°F , 1°C
Wind Chill: 23°F , -5°C
Dew Point: 21°F , -6°C
Humidity: 60%
Barometer: 30.43 inHg , 1030.5 hPa
Clouds: Clear
Visibility: 10 miles , 16 km
2020/11/30 12:58 KGRK 301258Z AUTO 35015KT 10SM CLR 01/M06 A3043 RMK AO2 SLP310 T00051062
KBMQ - Burnet, Texas, USA
Distance from station: WNW 39mi, 64km
Updated: Mon, 30-Nov-2020 6:53am CST
Clear
Clear
 Wind from NNW
Wind: NNW 9 mph , 15 km/h
Temperature: 34°F , 1°C
Wind Chill: 27°F , -3°C
Dew Point: 21°F , -6°C
Humidity: 60%
Barometer: 30.48 inHg , 1032.2 hPa
Clouds: Clear
Visibility: 10 miles , 16 km
2020/11/30 12:53 KBMQ 301253Z AUTO 33008KT 10SM CLR 01/M06 A3048 RMK AO2 SLP322 T00111061
 
KHLR - Ft Hood/Killeen, Texas, USA
Distance from station: N 41mi, 66km
Updated: Mon, 30-Nov-2020 6:58am CST
Clear
Clear
 Wind from NNW
Wind: NNW 15 mph , 24 km/h
Temperature: 34°F , 1°C
Wind Chill: 24°F , -4°C
Dew Point: 21°F , -6°C
Humidity: 60%
Barometer: 30.44 inHg , 1030.8 hPa
Clouds: Clear
Visibility: 10 miles , 16 km
2020/11/30 12:58 KHLR 301258Z AUTO 34013KT 10SM CLR 01/M06 A3044 RMK AO2 SLP312 T00081057
KTPL - Temple/Miller, Texas, USA
Distance from station: NNE 42mi, 68km
Updated: Mon, 30-Nov-2020 6:51am CST
Clear
Clear
 Wind from NNW
Wind: NNW 16 mph , 26 km/h
Temperature: 34°F , 1°C
Wind Chill: 24°F , -4°C
Dew Point: 23°F , -5°C
Humidity: 65%
Barometer: 30.44 inHg , 1030.8 hPa
Clouds: Clear
Visibility: 10 miles , 16 km
2020/11/30 12:51 KTPL 301251Z AUTO 34014KT 10SM CLR 01/M05 A3044 RMK AO2 SLP309 T00111050 FZRANO
 
KT35 - Cameron, Texas, USA
Distance from station: ENE 45mi, 72km
Updated: Mon, 30-Nov-2020 7:35am CST
Clear
Clear
 Wind from NNW
Wind: NNW 9 mph , 15 km/h
Temperature: 36°F , 2°C
Wind Chill: 29°F , -2°C
Dew Point: 27°F , -3°C
Humidity: 70%
Barometer: 30.47 inHg , 1031.8 hPa
Clouds: Clear
Visibility: 10 miles , 16 km
2020/11/30 13:35 KT35 301335Z AUTO 34008KT 10SM CLR 02/M03 A3047 RMK AO2 T00191035 TSNO
KDZB - Horseshoe Bay, Texas, USA
Distance from station: W 45mi, 73km
Updated: Mon, 30-Nov-2020 7:39am CST
Clear
Clear
 Wind from NW
Wind: NW 7 mph , 11 km/h
Temperature: 36°F , 2°C
Wind Chill: 30°F , -1°C
Dew Point: 21°F , -6°C
Humidity: 56%
Barometer: 30.50 inHg , 1032.8 hPa
Clouds: Clear
Visibility: 10 miles , 16 km
2020/11/30 13:39 KDZB 301339Z AUTO 32006KT 10SM CLR 02/M06 A3050 RMK AO2
 
KGYB - Giddings-Lee, Texas, USA
Distance from station: SE 45mi, 73km
Updated: Mon, 30-Nov-2020 7:35am CST
Clear
Clear
 Wind from NNW
Wind: NNW 10 mph , 17 km/h, Gust: 18 mph , 30 km/h
Temperature: 41°F , 5°C
Wind Chill: 35°F , 2°C
Dew Point: 30°F , -1°C
Humidity: 66%
Barometer: 30.46 inHg , 1031.5 hPa
Clouds: Clear
Visibility: 10 miles , 16 km
2020/11/30 13:35 KGYB 301335Z AUTO 34009G16KT 10SM CLR 05/M01 A3046 RMK AO2 T00501013
KHYI - San Marcos, Texas, USA
Distance from station: SSW 48mi, 78km
Updated: Mon, 30-Nov-2020 6:56am CST
Clear
Clear
 Wind from N
Wind: N 14 mph , 22 km/h
Temperature: 39°F , 4°C
Wind Chill: 31°F , -1°C
Dew Point: 28°F , -2°C
Humidity: 65%
Barometer: 30.47 inHg , 1031.8 hPa
Clouds: Clear
Visibility: 10 miles , 16 km
2020/11/30 12:56 KHYI 301256Z 35012KT 10SM CLR 04/M02 A3047 RMK AO2 SLP317 T00391022
 
KLZZ - Lampasas, Texas, USA
Distance from station: NW 52mi, 84km
Updated: Mon, 30-Nov-2020 7:35am CST
Clear
Clear
 Wind from NNW
Wind: NNW 7 mph , 11 km/h
Temperature: 32°F , 0°C
Wind Chill: 25°F , -4°C
Dew Point: 19°F , -7°C
Humidity: 60%
Barometer: 30.46 inHg , 1031.5 hPa
Clouds: Clear
Visibility: 10 miles , 16 km
2020/11/30 13:35 KLZZ 301335Z AUTO 34006KT 10SM CLR 00/M07 A3046 RMK AO2 T00001066
KRWV - Caldwell, Texas, USA
Distance from station: E 54mi, 87km
Updated: Mon, 30-Nov-2020 7:35am CST
Clear
Clear
 Wind from NNW
Wind: NNW 10 mph , 17 km/h
Temperature: 37°F , 3°C
Wind Chill: 30°F , -1°C
Dew Point: 25°F , -4°C
Humidity: 60%
Barometer: 30.46 inHg , 1031.5 hPa
Clouds: Clear
Visibility: 10 miles , 16 km
2020/11/30 13:35 KRWV 301335Z AUTO 33009KT 10SM CLR 03/M04 A3046 RMK AO2 T00291038
 
K3T5 - La Grange, Texas, USA
Distance from station: SE 59mi, 95km
Updated: Mon, 30-Nov-2020 7:35am CST
Clear
Clear
 Wind from NNW
Wind: NNW 13 mph , 20 km/h
Temperature: 41°F , 5°C
Wind Chill: 34°F , 1°C
Dew Point: 27°F , -3°C
Humidity: 57%
Barometer: 30.44 inHg , 1030.8 hPa
Clouds: Clear
Visibility: 10 miles , 16 km
2020/11/30 13:35 K3T5 301335Z AUTO 34011KT 10SM CLR 05/M03 A3044 RMK AO2 T00481029
KGOP - Gatesville, Texas, USA
Distance from station: N 61mi, 99km
Updated: Mon, 30-Nov-2020 7:35am CST
Clear
Clear
 Wind from NW
Wind: NW 7 mph , 11 km/h
Temperature: 32°F , 0°C
Wind Chill: 25°F , -4°C
Dew Point: 21°F , -6°C
Humidity: 64%
Barometer: 30.49 inHg , 1032.5 hPa
Clouds: Clear
Visibility: 10 miles , 16 km
2020/11/30 13:35 KGOP 301335Z AUTO 31006KT 10SM CLR 00/M06 A3049 RMK AO2
 
KLHB - Hearne Muni, Texas, USA
Distance from station: ENE 63mi, 101km
Updated: Mon, 30-Nov-2020 7:35am CST
Clear
Clear
 Wind from NNW
Wind: NNW 13 mph , 20 km/h
Temperature: 37°F , 3°C
Wind Chill: 29°F , -2°C
Dew Point: 27°F , -3°C
Humidity: 65%
Barometer: 30.46 inHg , 1031.5 hPa
Clouds: Clear
Visibility: 10 miles , 16 km
2020/11/30 13:35 KLHB 301335Z AUTO 33011KT 10SM CLR 03/M03 A3046 RMK AO2 T00281030
KBAZ - New Braunfels, Texas, USA
Distance from station: SSW 63mi, 102km
Updated: Mon, 30-Nov-2020 6:51am CST
Clear
Clear
 Wind from N
Wind: N 13 mph , 20 km/h
Temperature: 43°F , 6°C
Wind Chill: 36°F , 2°C
Dew Point: 25°F , -4°C
Humidity: 49%
Barometer: 30.44 inHg , 1030.8 hPa
Clouds: Clear
Visibility: 10 miles , 16 km
2020/11/30 12:51 KBAZ 301251Z 36011KT 10SM CLR 06/M04 A3044 RMK AO2 PK WND 01027/1228 SLP307 T00561039